Campo Bom, Brazil
Current Conditions -  °F | °C
As of 11:00 AM on Tuesday 21 Oct 2014 (Local Time) from SBCO Reporting Station
Broken Clouds Broken Clouds  
Wind Chill: 68°   Ceiling: 2700
Heat Index: 68°   Visibility: 6mi
Dew Point: 57°   Wind: 9mph
Humidity: 68%   Direction: 140°SE
Pressure: 30.21"   Gusts: NA
Location:  29.68°S, 51.05°W
Report Text: SBCO 211300Z 14008KT 9999 BKN027 20/14 Q1023
Loading
Personal Weather Stations






























Interactive Weather Map
Tropical Storm Tracking
New forecast layout! Learn more

10-Day Weather Forecast

Advertisements
Track Severe Weather on mobile